createdAt,value
2022-11-19T00:02:18.151Z,9.11
2022-11-19T00:04:44.768Z,9.08
2022-11-19T00:07:11.326Z,8.93
2022-11-19T00:09:38.030Z,9.00
2022-11-19T00:12:23.413Z,9.04
2022-11-19T00:14:49.949Z,9.01
2022-11-19T00:17:16.504Z,8.96
2022-11-19T00:19:42.983Z,8.98
2022-11-19T00:22:09.577Z,8.99
2022-11-19T00:24:36.060Z,8.97
2022-11-19T00:27:02.602Z,9.02
2022-11-19T00:29:29.310Z,8.97
2022-11-19T00:31:56.181Z,9.12
2022-11-19T00:34:23.152Z,9.07
2022-11-19T00:36:50.722Z,9.09
2022-11-19T00:39:17.852Z,9.17
2022-11-19T00:41:44.589Z,9.17
2022-11-19T00:44:11.185Z,9.20
2022-11-19T00:46:37.953Z,9.26
2022-11-19T00:49:04.702Z,9.19
2022-11-19T00:51:31.216Z,9.08
2022-11-19T00:53:57.797Z,9.11
2022-11-19T00:56:25.074Z,9.12
2022-11-19T00:58:51.741Z,9.14
2022-11-19T01:01:19.615Z,9.12
2022-11-19T01:03:46.348Z,9.08
2022-11-19T01:06:16.468Z,9.09
2022-11-19T01:08:45.909Z,9.15
2022-11-19T01:11:16.790Z,9.27
2022-11-19T01:13:44.017Z,9.22
2022-11-19T01:16:13.756Z,9.14
2022-11-19T01:18:40.533Z,9.21
2022-11-19T01:21:08.386Z,9.06
2022-11-19T01:23:35.908Z,9.06
2022-11-19T01:26:02.666Z,9.01
2022-11-19T01:28:29.524Z,8.96
2022-11-19T01:30:56.091Z,8.88
2022-11-19T01:33:22.763Z,8.95
2022-11-19T01:35:56.307Z,9.01
2022-11-19T01:38:22.838Z,8.98
2022-11-19T01:40:49.331Z,9.00
2022-11-19T01:43:15.992Z,8.86
2022-11-19T01:45:48.902Z,8.99
2022-11-19T01:48:20.155Z,9.02
2022-11-19T01:50:50.229Z,9.00
2022-11-19T01:53:17.379Z,8.92
2022-11-19T01:55:43.921Z,9.08
2022-11-19T01:58:11.167Z,8.98
2022-11-19T02:00:37.747Z,8.95
2022-11-19T02:03:04.236Z,8.95
2022-11-19T02:05:31.205Z,9.04
2022-11-19T02:07:58.475Z,8.85
2022-11-19T02:10:27.427Z,9.01
2022-11-19T02:13:03.029Z,9.12
2022-11-19T02:15:44.892Z,9.06
2022-11-19T02:18:17.890Z,9.08
2022-11-19T02:20:45.552Z,8.98
2022-11-19T02:26:26.964Z,8.93
2022-11-19T02:28:54.208Z,9.01
2022-11-19T02:31:20.747Z,8.95
2022-11-19T02:33:55.480Z,8.91
2022-11-19T02:36:28.836Z,9.07
2022-11-19T02:38:56.678Z,9.04
2022-11-19T02:41:41.940Z,8.97
2022-11-19T02:44:46.287Z,8.78
2022-11-19T02:47:14.854Z,8.82
2022-11-19T02:49:42.652Z,8.71
2022-11-19T02:52:09.344Z,8.86
2022-11-19T02:54:35.879Z,8.76
2022-11-19T02:57:03.453Z,8.85
2022-11-19T02:59:55.223Z,8.81
2022-11-19T03:02:40.252Z,8.95
2022-11-19T03:05:07.577Z,8.96
2022-11-19T03:07:34.608Z,8.93
2022-11-19T03:10:02.292Z,8.84
2022-11-19T03:12:39.729Z,9.00
2022-11-19T03:15:27.709Z,9.14
2022-11-19T03:17:54.340Z,9.04
2022-11-19T03:20:23.712Z,9.00
2022-11-19T03:22:54.653Z,8.88
2022-11-19T03:25:35.178Z,9.07
2022-11-19T03:28:03.007Z,9.16
2022-11-19T03:30:29.851Z,9.22
2022-11-19T03:33:00.027Z,9.22
2022-11-19T03:35:28.035Z,9.21
2022-11-19T03:37:54.571Z,9.18
2022-11-19T03:40:21.208Z,9.15
2022-11-19T03:42:48.259Z,9.18
2022-11-19T03:45:19.063Z,9.20
2022-11-19T03:47:45.661Z,9.19
2022-11-19T03:50:17.606Z,9.21
2022-11-19T03:52:44.219Z,9.21
2022-11-19T03:55:10.715Z,9.18
2022-11-19T03:57:37.312Z,9.21
2022-11-19T04:00:04.826Z,9.29
2022-11-19T04:02:40.362Z,9.25
2022-11-19T04:05:07.106Z,9.21
2022-11-19T04:07:33.718Z,9.23
2022-11-19T04:10:00.399Z,9.16
2022-11-19T04:12:27.055Z,9.21
2022-11-19T04:14:54.187Z,9.03
2022-11-19T04:17:21.219Z,9.08
2022-11-19T04:19:48.284Z,9.14
2022-11-19T04:22:14.853Z,9.01
2022-11-19T04:24:41.398Z,9.13
2022-11-19T04:27:07.904Z,9.20
2022-11-19T04:29:34.507Z,9.23
2022-11-19T04:32:01.067Z,9.21
2022-11-19T04:34:27.602Z,9.26
2022-11-19T04:36:54.117Z,9.20
2022-11-19T04:39:21.045Z,9.14
2022-11-19T04:41:47.847Z,9.16
2022-11-19T04:44:14.358Z,9.25
2022-11-19T04:46:40.852Z,9.31
2022-11-19T04:49:07.462Z,9.18
2022-11-19T04:51:33.971Z,9.27
2022-11-19T04:54:00.587Z,9.27
2022-11-19T04:56:27.134Z,9.33
2022-11-19T04:58:53.705Z,9.32
2022-11-19T05:01:21.072Z,9.33
2022-11-19T05:03:48.527Z,9.22
2022-11-19T05:06:15.804Z,9.19
2022-11-19T05:08:42.637Z,9.26
2022-11-19T05:11:09.121Z,9.30
2022-11-19T05:13:35.731Z,9.23
2022-11-19T05:16:02.330Z,9.07
2022-11-19T05:18:29.250Z,9.01
2022-11-19T05:20:55.872Z,8.92
2022-11-19T05:23:22.518Z,9.09
2022-11-19T05:25:49.084Z,9.04
2022-11-19T05:28:17.254Z,9.04
2022-11-19T05:30:45.818Z,9.14
2022-11-19T05:33:12.373Z,9.27
2022-11-19T05:35:38.928Z,9.29
2022-11-19T05:38:06.587Z,9.34
2022-11-19T05:40:33.112Z,9.18
2022-11-19T05:43:03.599Z,9.05
2022-11-19T05:45:30.239Z,9.05
2022-11-19T05:47:56.919Z,9.13
2022-11-19T05:50:23.486Z,9.18
2022-11-19T05:52:50.055Z,9.18
2022-11-19T05:55:16.985Z,9.23
2022-11-19T05:57:43.526Z,9.31
2022-11-19T06:00:10.709Z,9.20
2022-11-19T06:02:40.226Z,9.25
2022-11-19T06:05:06.936Z,9.26
2022-11-19T06:07:33.440Z,9.22
2022-11-19T06:10:00.028Z,9.18
2022-11-19T06:12:26.612Z,9.30
2022-11-19T06:14:53.342Z,9.26
2022-11-19T06:17:20.113Z,9.30
2022-11-19T06:19:47.208Z,9.27
2022-11-19T06:22:13.748Z,9.23
2022-11-19T06:24:40.329Z,9.15
2022-11-19T06:27:07.523Z,9.10
2022-11-19T06:29:34.091Z,9.09
2022-11-19T06:32:00.595Z,9.08
2022-11-19T06:34:48.747Z,8.87
2022-11-19T06:37:22.023Z,8.99
2022-11-19T06:39:49.842Z,8.83
2022-11-19T06:42:40.679Z,8.90
2022-11-19T06:45:12.857Z,8.99
2022-11-19T06:48:06.331Z,9.02
2022-11-19T06:50:37.630Z,9.12
2022-11-19T06:53:18.051Z,9.14
2022-11-19T06:56:10.035Z,9.05
2022-11-19T06:58:45.919Z,8.97
2022-11-19T07:01:35.343Z,8.90
2022-11-19T07:06:48.949Z,8.83
2022-11-19T07:09:15.555Z,8.70
2022-11-19T07:11:42.150Z,8.74
2022-11-19T07:14:08.796Z,8.71
2022-11-19T07:16:36.068Z,8.82
2022-11-19T07:19:03.831Z,8.86
2022-11-19T07:21:30.514Z,8.86
2022-11-19T07:23:57.478Z,8.86
2022-11-19T07:26:24.145Z,8.75
2022-11-19T07:28:50.855Z,8.78
2022-11-19T07:31:17.587Z,8.88
2022-11-19T07:33:44.228Z,8.78
2022-11-19T07:36:18.137Z,8.79
2022-11-19T07:38:45.554Z,8.94
2022-11-19T07:41:31.497Z,8.98
2022-11-19T07:44:33.944Z,8.97
2022-11-19T07:47:22.070Z,9.02
2022-11-19T07:49:49.521Z,8.99
2022-11-19T07:55:08.045Z,8.88
2022-11-19T07:57:34.892Z,9.00
2022-11-19T08:00:01.632Z,9.03
2022-11-19T08:02:28.251Z,8.95
2022-11-19T08:04:54.893Z,9.00
2022-11-19T08:07:21.735Z,9.19
2022-11-19T08:09:50.463Z,9.31
2022-11-19T08:12:17.165Z,9.45
2022-11-19T08:14:43.662Z,9.38
2022-11-19T08:17:28.934Z,9.44
2022-11-19T08:22:22.001Z,9.41
2022-11-19T08:24:48.818Z,9.43
2022-11-19T08:27:15.683Z,9.47
2022-11-19T08:29:42.691Z,9.47
2022-11-19T08:32:09.296Z,9.52
2022-11-19T08:34:35.902Z,9.55
2022-11-19T08:37:02.816Z,9.47
2022-11-19T08:39:29.473Z,9.48
2022-11-19T08:42:14.711Z,9.44
2022-11-19T08:44:41.254Z,9.43
2022-11-19T08:47:07.960Z,9.43
2022-11-19T08:49:34.516Z,9.35
2022-11-19T08:52:01.043Z,9.27
2022-11-19T08:54:27.668Z,9.26
2022-11-19T08:56:54.432Z,9.28
2022-11-19T08:59:22.036Z,9.45
2022-11-19T09:01:49.910Z,9.41
2022-11-19T09:04:16.587Z,9.64
2022-11-19T09:06:43.269Z,9.83
2022-11-19T09:09:10.165Z,9.82
2022-11-19T09:11:41.341Z,9.99
2022-11-19T09:14:09.326Z,10.09
2022-11-19T09:16:36.018Z,10.13
2022-11-19T09:19:02.778Z,10.24
2022-11-19T09:21:29.334Z,10.16
2022-11-19T09:23:55.957Z,10.28
2022-11-19T09:26:22.510Z,10.39
2022-11-19T09:28:49.607Z,10.34
2022-11-19T09:31:17.549Z,10.35
2022-11-19T09:33:45.817Z,10.34
2022-11-19T09:36:12.377Z,10.28
2022-11-19T09:38:40.257Z,10.46
2022-11-19T09:41:33.524Z,10.42
2022-11-19T09:44:26.396Z,10.32
2022-11-19T09:46:55.732Z,10.43
2022-11-19T09:49:24.772Z,10.47
2022-11-19T09:51:53.224Z,10.48
2022-11-19T09:54:21.044Z,10.49
2022-11-19T09:56:47.992Z,10.27
2022-11-19T09:59:33.808Z,10.17
2022-11-19T10:02:00.358Z,10.29
2022-11-19T10:04:28.827Z,10.43
2022-11-19T10:07:06.710Z,10.45
2022-11-19T10:09:33.256Z,10.51
2022-11-19T10:12:19.408Z,10.54
2022-11-19T10:15:12.051Z,10.51
2022-11-19T10:17:56.989Z,10.17
2022-11-19T10:20:32.795Z,10.32
2022-11-19T10:23:03.745Z,10.28
2022-11-19T10:25:42.428Z,10.10
2022-11-19T10:28:13.968Z,10.37
2022-11-19T10:30:41.025Z,10.23
2022-11-19T10:33:19.669Z,10.21
2022-11-19T10:35:54.420Z,10.24
2022-11-19T10:38:28.685Z,10.21
2022-11-19T10:41:05.140Z,10.26
2022-11-19T10:43:38.836Z,10.55
2022-11-19T10:46:06.239Z,10.49
2022-11-19T10:48:37.929Z,10.45
2022-11-19T10:51:09.926Z,10.64
2022-11-19T10:53:36.947Z,10.38
2022-11-19T10:56:04.817Z,10.37
2022-11-19T10:58:39.645Z,10.35
2022-11-19T11:01:18.319Z,10.43
2022-11-19T11:04:17.626Z,10.16
2022-11-19T11:07:04.956Z,10.04
2022-11-19T11:09:40.984Z,10.04
2022-11-19T11:12:30.392Z,10.15
2022-11-19T11:14:59.956Z,10.22
2022-11-19T11:17:31.067Z,10.06
2022-11-19T11:20:03.222Z,9.93
2022-11-19T11:22:30.725Z,9.86
2022-11-19T11:25:04.243Z,9.93
2022-11-19T11:27:34.607Z,9.75
2022-11-19T11:30:19.496Z,9.91
2022-11-19T11:32:47.501Z,9.82
2022-11-19T11:35:34.002Z,9.87
2022-11-19T11:38:00.927Z,9.97
2022-11-19T11:40:27.549Z,9.89
2022-11-19T11:42:54.127Z,10.01
2022-11-19T11:45:21.882Z,10.00
2022-11-19T11:47:48.395Z,9.95
2022-11-19T11:50:15.691Z,9.87
2022-11-19T11:52:44.253Z,10.14
2022-11-19T11:55:14.898Z,10.14
2022-11-19T11:57:54.931Z,10.21
2022-11-19T12:00:24.554Z,10.23
2022-11-19T12:03:01.115Z,10.18
2022-11-19T12:05:28.487Z,10.19
2022-11-19T12:07:58.361Z,10.09
2022-11-19T12:10:34.018Z,10.10
2022-11-19T12:13:02.655Z,10.01
2022-11-19T12:15:32.206Z,10.05
2022-11-19T12:18:17.505Z,9.90
2022-11-19T12:20:44.139Z,9.58
2022-11-19T12:23:25.764Z,9.77
2022-11-19T12:26:13.088Z,9.88
2022-11-19T12:28:48.705Z,10.03
2022-11-19T12:31:20.985Z,10.16
2022-11-19T12:33:47.792Z,10.19
2022-11-19T12:36:19.241Z,9.98
2022-11-19T12:38:45.989Z,9.94
2022-11-19T12:41:31.741Z,9.86
2022-11-19T12:43:58.382Z,9.79
2022-11-19T12:46:32.397Z,9.85
2022-11-19T12:49:18.050Z,9.68
2022-11-19T12:51:52.310Z,9.95
2022-11-19T12:54:28.913Z,10.15
2022-11-19T12:56:56.955Z,9.81
2022-11-19T12:59:38.854Z,9.63
2022-11-19T13:02:08.140Z,9.66
2022-11-19T13:04:37.179Z,9.72
2022-11-19T13:07:04.886Z,9.76
2022-11-19T13:09:44.769Z,9.75
2022-11-19T13:12:12.626Z,9.55
2022-11-19T13:14:49.506Z,9.74
2022-11-19T13:17:26.750Z,9.77
2022-11-19T13:20:04.865Z,9.60
2022-11-19T13:22:33.312Z,9.77
2022-11-19T13:25:01.287Z,9.76
2022-11-19T13:27:28.348Z,9.64
2022-11-19T13:29:54.798Z,9.63
2022-11-19T13:32:40.630Z,9.72
2022-11-19T13:35:27.428Z,9.77
2022-11-19T13:37:58.863Z,9.75
2022-11-19T13:40:45.449Z,9.70
2022-11-19T13:43:35.611Z,9.93
2022-11-19T13:46:11.461Z,10.01
2022-11-19T13:48:41.633Z,10.15
2022-11-19T13:51:10.385Z,10.19
2022-11-19T13:53:41.421Z,10.18
2022-11-19T13:56:12.382Z,10.13
2022-11-19T13:58:44.339Z,10.00
2022-11-19T14:01:26.372Z,9.95
2022-11-19T14:03:52.999Z,10.10
2022-11-19T14:06:28.726Z,10.17
2022-11-19T14:09:14.113Z,10.25
2022-11-19T14:11:40.638Z,10.09
2022-11-19T14:14:44.342Z,10.18
2022-11-19T14:17:45.797Z,10.00
2022-11-19T14:20:51.067Z,9.84
2022-11-19T14:23:55.909Z,9.73
2022-11-19T14:26:40.829Z,9.68
2022-11-19T14:29:42.715Z,9.58
2022-11-19T14:32:09.203Z,9.58
2022-11-19T14:34:37.059Z,9.63
2022-11-19T14:37:12.701Z,9.52
2022-11-19T14:39:40.084Z,9.50
2022-11-19T14:42:14.862Z,9.33
2022-11-19T14:44:41.968Z,9.38
2022-11-19T14:47:26.183Z,9.37
2022-11-19T14:49:55.219Z,9.23
2022-11-19T14:52:23.389Z,9.51
2022-11-19T14:54:54.003Z,9.41
2022-11-19T14:57:25.408Z,9.23
2022-11-19T14:59:52.964Z,9.04
2022-11-19T15:02:39.619Z,8.73
2022-11-19T15:05:14.774Z,8.86
2022-11-19T15:07:55.994Z,8.62
2022-11-19T15:10:27.160Z,8.66
2022-11-19T15:13:12.802Z,8.72
2022-11-19T15:15:42.808Z,8.76
2022-11-19T15:18:23.271Z,8.55
2022-11-19T15:20:59.079Z,8.62
2022-11-19T15:23:34.713Z,8.61
2022-11-19T15:26:06.927Z,8.55
2022-11-19T15:28:52.510Z,8.38
2022-11-19T15:31:38.603Z,8.32
2022-11-19T15:34:07.151Z,8.09
2022-11-19T15:36:39.735Z,8.16
2022-11-19T15:39:17.050Z,8.04
2022-11-19T15:42:00.684Z,8.01
2022-11-19T15:44:36.663Z,8.01
2022-11-19T15:47:14.405Z,7.97
2022-11-19T15:49:44.311Z,7.87
2022-11-19T15:52:17.587Z,7.81
2022-11-19T15:54:44.811Z,7.86
2022-11-19T15:57:17.373Z,7.77
2022-11-19T15:59:57.241Z,7.77
2022-11-19T16:04:57.379Z,7.67
2022-11-19T16:07:25.319Z,7.77
2022-11-19T16:09:52.276Z,7.84
2022-11-19T16:12:39.006Z,7.91
2022-11-19T16:15:34.954Z,7.89
2022-11-19T16:18:01.510Z,7.85
2022-11-19T16:20:28.063Z,7.94
2022-11-19T16:22:54.587Z,7.98
2022-11-19T16:25:40.021Z,8.06
2022-11-19T16:28:27.712Z,7.95
2022-11-19T16:30:54.985Z,7.93
2022-11-19T16:33:22.568Z,7.91
2022-11-19T16:35:52.935Z,7.96
2022-11-19T16:38:29.227Z,7.87
2022-11-19T16:41:14.586Z,8.04
2022-11-19T16:43:41.880Z,8.04
2022-11-19T16:46:08.408Z,7.91
2022-11-19T16:48:50.635Z,7.97
2022-11-19T16:51:26.290Z,8.17
2022-11-19T16:53:52.896Z,8.09
2022-11-19T16:56:19.631Z,8.01
2022-11-19T16:58:46.327Z,8.00
2022-11-19T17:01:12.927Z,8.14
2022-11-19T17:03:40.825Z,8.01
2022-11-19T17:06:08.965Z,8.13
2022-11-19T17:08:39.481Z,8.38
2022-11-19T17:11:34.374Z,8.15
2022-11-19T17:14:04.986Z,8.19
2022-11-19T17:16:31.511Z,8.16
2022-11-19T17:18:58.134Z,8.31
2022-11-19T17:21:28.145Z,8.12
2022-11-19T17:23:54.918Z,8.03
2022-11-19T17:26:27.291Z,8.20
2022-11-19T17:28:57.145Z,8.46
2022-11-19T17:31:26.243Z,8.48
2022-11-19T17:33:55.907Z,8.50
2022-11-19T17:36:23.118Z,8.27
2022-11-19T17:41:43.160Z,8.29
2022-11-19T17:44:44.799Z,8.23
2022-11-19T17:50:23.809Z,8.22
2022-11-19T17:52:50.557Z,8.28
2022-11-19T17:55:18.292Z,8.39
2022-11-19T17:57:44.945Z,8.35
2022-11-19T18:00:11.974Z,8.40
2022-11-19T18:02:38.568Z,8.48
2022-11-19T18:05:16.396Z,8.48
2022-11-19T18:07:43.576Z,8.48
2022-11-19T18:10:10.206Z,8.42
2022-11-19T18:12:36.949Z,8.20
2022-11-19T18:15:03.767Z,8.33
2022-11-19T18:17:30.331Z,8.21
2022-11-19T18:19:56.851Z,7.99
2022-11-19T18:22:23.858Z,7.98
2022-11-19T18:24:50.784Z,8.07
2022-11-19T18:27:17.413Z,8.22
2022-11-19T18:29:44.079Z,8.02
2022-11-19T18:32:11.172Z,8.01
2022-11-19T18:34:37.850Z,8.24
2022-11-19T18:37:04.421Z,8.30
2022-11-19T18:39:31.012Z,8.16
2022-11-19T18:41:57.566Z,8.26
2022-11-19T18:44:36.149Z,8.26
2022-11-19T18:47:03.859Z,8.27
2022-11-19T18:49:30.583Z,8.31
2022-11-19T18:51:57.100Z,8.14
2022-11-19T18:54:23.659Z,8.22
2022-11-19T18:56:50.567Z,8.07
2022-11-19T18:59:17.850Z,8.17
2022-11-19T19:01:44.482Z,8.23
2022-11-19T19:04:14.304Z,8.40
2022-11-19T19:06:41.394Z,8.28
2022-11-19T19:09:08.665Z,8.36
2022-11-19T19:11:54.169Z,8.27
2022-11-19T19:14:22.055Z,8.24
2022-11-19T19:16:48.675Z,8.22
2022-11-19T19:19:17.287Z,8.27
2022-11-19T19:21:43.995Z,8.17
2022-11-19T19:24:11.453Z,8.14
2022-11-19T19:26:39.485Z,8.14
2022-11-19T19:29:06.502Z,8.22
2022-11-19T19:31:33.556Z,8.13
2022-11-19T19:34:01.328Z,8.12
2022-11-19T19:36:28.137Z,8.17
2022-11-19T19:38:54.707Z,7.89
2022-11-19T19:41:25.524Z,7.71
2022-11-19T19:43:52.779Z,7.86
2022-11-19T19:46:20.151Z,7.87
2022-11-19T19:48:47.560Z,7.84
2022-11-19T19:51:14.850Z,7.90
2022-11-19T19:53:45.504Z,7.95
2022-11-19T19:56:13.051Z,8.00
2022-11-19T19:58:39.956Z,7.86
2022-11-19T20:01:10.705Z,7.68
2022-11-19T20:03:37.451Z,7.70
2022-11-19T20:06:04.969Z,7.44
2022-11-19T20:08:31.640Z,7.64
2022-11-19T20:11:06.675Z,7.76
2022-11-19T20:13:33.644Z,7.68
2022-11-19T20:16:04.390Z,7.69
2022-11-19T20:18:32.227Z,7.57
2022-11-19T20:21:00.269Z,7.51
2022-11-19T20:23:29.798Z,7.41
2022-11-19T20:26:04.117Z,7.48
2022-11-19T20:28:30.781Z,7.35
2022-11-19T20:31:04.185Z,7.33
2022-11-19T20:33:31.531Z,7.26
2022-11-19T20:35:58.236Z,7.37
2022-11-19T20:38:25.002Z,7.42
2022-11-19T20:41:01.702Z,7.38
2022-11-19T20:43:52.590Z,7.34
2022-11-19T20:46:20.261Z,7.06
2022-11-19T20:48:47.426Z,7.20
2022-11-19T20:51:14.257Z,7.04
2022-11-19T20:53:40.848Z,7.01
2022-11-19T20:56:08.137Z,6.89
2022-11-19T20:58:35.461Z,6.95
2022-11-19T21:01:34.456Z,6.86
2022-11-19T21:04:46.803Z,7.04
2022-11-19T21:13:08.066Z,6.62
2022-11-19T21:15:36.154Z,6.68
2022-11-19T21:18:02.890Z,6.78
2022-11-19T21:20:29.641Z,6.87
2022-11-19T21:22:56.568Z,6.96
2022-11-19T21:25:23.090Z,6.99
2022-11-19T21:28:02.846Z,6.72
2022-11-19T21:33:37.923Z,6.82
2022-11-19T21:36:04.950Z,6.78
2022-11-19T21:38:31.516Z,6.87
2022-11-19T21:40:58.224Z,6.78
2022-11-19T21:43:25.515Z,6.81
2022-11-19T21:45:54.449Z,6.93
2022-11-19T21:48:21.627Z,6.97
2022-11-19T21:51:14.530Z,6.86
2022-11-19T22:03:00.963Z,6.86
2022-11-19T22:05:27.958Z,6.96
2022-11-19T22:07:54.504Z,7.08
2022-11-19T22:10:21.240Z,7.32
2022-11-19T22:12:48.754Z,7.20
2022-11-19T22:15:15.311Z,7.23
2022-11-19T22:17:41.891Z,7.12
2022-11-19T22:20:08.554Z,7.06
2022-11-19T22:22:35.119Z,7.09
2022-11-19T22:25:02.070Z,7.02
2022-11-19T22:27:28.955Z,7.00
2022-11-19T22:29:56.691Z,7.17
2022-11-19T22:32:23.459Z,7.31
2022-11-19T22:38:11.231Z,7.27
2022-11-19T23:02:52.967Z,7.28
2022-11-19T23:08:15.176Z,7.31
2022-11-19T23:10:43.747Z,7.19
2022-11-19T23:13:33.052Z,7.09
2022-11-19T23:16:05.820Z,6.94
2022-11-19T23:21:45.150Z,7.07
2022-11-19T23:24:13.147Z,7.12
2022-11-19T23:26:59.676Z,6.90
2022-11-19T23:29:29.106Z,6.89
2022-11-19T23:31:58.342Z,6.80
2022-11-19T23:34:41.018Z,6.78
2022-11-19T23:37:10.839Z,6.75
2022-11-19T23:39:50.456Z,6.80
2022-11-19T23:42:39.565Z,6.84
2022-11-19T23:45:06.333Z,6.89
2022-11-19T23:47:36.613Z,6.85
2022-11-19T23:50:03.511Z,6.80
2022-11-19T23:52:30.017Z,6.80
2022-11-19T23:54:56.640Z,6.94
2022-11-19T23:57:23.219Z,7.04
2022-11-19T23:59:49.770Z,7.04
